Terminal Aerodrome Forecast
Issued by NWS Cleveland, OH

Home | Current Version | Previous Version | Text Only | Print | Product List | Glossary Off
Versions: 1 2 3 4 5 6 7 8 9 10 11 12 13 14

067
FTUS41 KCLE 181517 AAA
TAFERI
TAF AMD
KERI 181517Z 1815/1912 22015G25KT P6SM SCT250
     FM190000 24007KT P6SM SCT250=

USA.gov is the U.S. government's official web portal to all federal, state and local government web resources and services.